Time;durP1;ratioP1;P1;durP2;ratioP2;P2;SDS_P1;SDS_P2;PMS_P1;PMS_P2;Temp;Humidity;BMP_temperature;BMP_pressure;BME280_temperature;BME280_humidity;BME280_pressure;Samples;Min_cycle;Max_cycle;Signal;HPM_P1;HPM_P2
2022/12/30 00:00:50;;;;;;;35.50;15.70;;;;;;;5.75;94.51;95421.19;5133399;27;20303;-79
2022/12/30 00:03:17;;;;;;;36.30;16.98;;;;;;;5.76;95.15;95425.47;5122576;27;20255;-79
2022/12/30 00:05:45;;;;;;;31.08;16.42;;;;;;;5.84;95.18;95424.91;5117126;27;20201;-80
2022/12/30 00:10:59;;;;;;;34.83;16.45;;;;;;;5.89;93.63;95430.28;5120226;27;20567;-80
2022/12/30 00:33:08;;;;;;;31.45;15.93;;;;;;;5.75;94.59;95450.75;5119358;27;20216;-80
2022/12/30 00:35:35;;;;;;;30.90;14.77;;;;;;;5.77;94.44;95438.66;5124658;27;20189;-79
2022/12/30 00:38:04;;;;;;;30.20;13.35;;;;;;;5.77;94.28;95435.16;5126010;27;20201;-79
2022/12/30 00:40:30;;;;;;;40.72;13.07;;;;;;;5.65;94.47;95449.72;5121571;27;20209;-79
2022/12/30 00:43:08;;;;;;;45.03;20.48;;;;;;;5.41;95.48;95454.13;5132899;27;20253;-79
2022/12/30 00:45:36;;;;;;;36.85;17.67;;;;;;;5.31;96.24;95454.19;5121868;27;20280;-79
2022/12/30 00:56:19;;;;;;;34.33;14.63;;;;;;;5.51;95.38;95443.34;5113520;27;20193;-78
2022/12/30 00:58:45;;;;;;;41.60;13.70;;;;;;;5.57;94.94;95436.88;5118360;27;20217;-79
2022/12/30 01:01:12;;;;;;;22.85;12.45;;;;;;;5.56;95.16;95437.97;5112301;28;20197;-79
2022/12/30 01:03:39;;;;;;;20.45;11.43;;;;;;;5.50;95.29;95441.72;5125767;27;20200;-79
2022/12/30 01:06:06;;;;;;;22.70;12.40;;;;;;;5.57;95.50;95442.25;5119208;27;20194;-79
2022/12/30 01:08:35;;;;;;;26.42;13.90;;;;;;;5.44;95.11;95436.66;5118473;27;20280;-78
2022/12/30 01:11:06;;;;;;;26.63;11.98;;;;;;;5.28;96.00;95449.34;5131948;27;20205;-79
2022/12/30 01:13:33;;;;;;;28.50;13.35;;;;;;;5.05;96.20;95444.59;5131955;27;20240;-79
2022/12/30 01:16:07;;;;;;;69.30;26.05;;;;;;;4.85;98.30;95440.88;5132174;27;20735;-78
2022/12/30 01:18:34;;;;;;;46.30;16.90;;;;;;;5.11;98.60;95432.75;5129388;27;20213;-79
2022/12/30 01:21:01;;;;;;;24.83;12.88;;;;;;;5.07;98.30;95442.41;5121718;27;20201;-79
2022/12/30 01:23:28;;;;;;;32.22;13.77;;;;;;;5.14;98.32;95437.56;5133114;27;20204;-78
2022/12/30 01:25:56;;;;;;;29.25;13.25;;;;;;;5.24;97.71;95437.53;5122679;27;20201;-78
2022/12/30 01:28:23;;;;;;;28.50;13.90;;;;;;;5.30;97.34;95431.88;5126766;27;20205;-79
2022/12/30 01:30:49;;;;;;;44.17;15.30;;;;;;;5.26;96.83;95430.00;5123544;27;20217;-79
2022/12/30 01:33:16;;;;;;;35.55;15.40;;;;;;;5.27;97.00;95431.63;5119247;27;20228;-79
2022/12/30 01:35:43;;;;;;;28.38;12.85;;;;;;;5.26;97.00;95435.38;5122848;27;20202;-79
2022/12/30 01:38:10;;;;;;;37.65;13.82;;;;;;;5.27;96.75;95428.94;5117248;27;20193;-78
2022/12/30 01:40:40;;;;;;;25.17;13.07;;;;;;;5.32;96.38;95423.56;5122310;27;20221;-79
2022/12/30 01:43:12;;;;;;;35.33;16.00;;;;;;;5.23;96.41;95419.81;5129517;27;20393;-79
2022/12/30 01:45:39;;;;;;;27.08;11.82;;;;;;;5.19;97.10;95419.56;5131504;27;20563;-79
2022/12/30 01:48:14;;;;;;;31.27;13.10;;;;;;;5.33;96.58;95419.75;5111458;27;20205;-79
2022/12/30 01:50:46;;;;;;;23.70;12.38;;;;;;;5.28;96.50;95417.13;5125231;27;20561;-79
2022/12/30 01:53:16;;;;;;;30.98;12.00;;;;;;;5.25;96.29;95418.47;5118968;27;20544;-78
2022/12/30 01:55:49;;;;;;;28.17;14.77;;;;;;;5.13;97.19;95419.84;5132156;27;20242;-77
2022/12/30 01:58:24;;;;;;;29.60;14.05;;;;;;;5.23;96.96;95417.94;5123139;27;20254;-79
2022/12/30 02:00:52;;;;;;;36.10;14.70;;;;;;;5.34;96.82;95421.38;5117441;27;20288;-79
2022/12/30 02:03:20;;;;;;;21.85;11.50;;;;;;;5.33;96.35;95425.94;5120067;27;20213;-78
2022/12/30 02:05:48;;;;;;;27.08;14.50;;;;;;;5.33;96.30;95419.75;5115197;27;20208;-79
2022/12/30 02:08:18;;;;;;;22.83;11.75;;;;;;;5.26;96.66;95427.31;5119707;27;20262;-80
2022/12/30 02:10:48;;;;;;;28.00;12.10;;;;;;;5.30;97.34;95421.16;5116150;27;20200;-79
2022/12/30 02:13:20;;;;;;;27.60;13.05;;;;;;;5.31;97.05;95411.19;5117391;27;20233;-79
2022/12/30 02:15:57;;;;;;;32.45;13.30;;;;;;;5.32;97.02;95412.81;5117404;27;20612;-78
2022/12/30 02:18:34;;;;;;;30.23;13.63;;;;;;;5.32;97.02;95410.13;5117426;27;20189;-79
2022/12/30 02:21:32;;;;;;;30.30;13.93;;;;;;;5.35;96.84;95412.25;5131424;27;20192;-79
2022/12/30 02:24:30;;;;;;;27.05;12.55;;;;;;;5.37;96.79;95420.84;5075843;28;20355;-79
2022/12/30 02:27:13;;;;;;;32.90;15.70;;;;;;;5.28;97.15;95417.13;5124778;27;20221;-79
2022/12/30 02:30:04;;;;;;;33.78;13.75;;;;;;;5.21;97.34;95419.28;5124364;27;20781;-80
2022/12/30 02:32:42;;;;;;;29.90;12.68;;;;;;;5.17;98.08;95416.34;5121289;27;20638;-79
2022/12/30 02:35:22;;;;;;;28.80;14.20;;;;;;;5.25;97.80;95418.47;5117151;27;20224;-79
2022/12/30 02:38:01;;;;;;;26.55;13.10;;;;;;;5.18;97.32;95417.97;5116770;27;20266;-79
2022/12/30 02:46:12;;;;;;;30.75;13.07;;;;;;;4.75;98.85;95405.19;5117187;28;20201;-79
2022/12/30 02:48:46;;;;;;;26.15;13.27;;;;;;;4.72;98.49;95419.94;5120980;27;20205;-79
2022/12/30 02:53:59;;;;;;;22.02;10.75;;;;;;;4.70;97.89;95400.63;5117066;28;20339;-78
2022/12/30 02:56:26;;;;;;;35.90;15.57;;;;;;;4.66;98.17;95404.91;5124700;27;20209;-78
2022/12/30 03:03:57;;;;;;;26.63;12.75;;;;;;;4.48;98.49;95408.19;5116620;28;20225;-79
2022/12/30 03:04:55;;;;;;;20.88;9.93;;;;;;;4.41;99.85;95413.00;5119798;28;20224;-80
2022/12/30 03:07:32;;;;;;;24.33;11.50;;;;;;;4.32;99.82;95409.25;5116758;28;20237;-79
2022/12/30 03:13:02;;;;;;;27.63;12.90;;;;;;;4.22;100.00;95421.59;5111575;28;20260;-79
2022/12/30 03:15:33;;;;;;;29.83;12.32;;;;;;;4.19;100.00;95416.78;5127565;27;20221;-79
2022/12/30 03:18:01;;;;;;;22.20;12.82;;;;;;;4.16;100.00;95419.97;5127003;27;20196;-79
2022/12/30 03:20:32;;;;;;;25.33;11.52;;;;;;;4.00;100.00;95417.53;5128372;27;20205;-79
2022/12/30 03:28:33;;;;;;;16.02;9.02;;;;;;;4.08;100.00;95417.84;5128391;27;20668;-79
2022/12/30 03:31:02;;;;;;;19.67;10.30;;;;;;;3.99;100.00;95418.63;5126778;27;20201;-79
2022/12/30 03:33:29;;;;;;;24.05;12.15;;;;;;;3.97;100.00;95429.59;5120426;27;20215;-78
2022/12/30 03:36:07;;;;;;;24.48;11.23;;;;;;;3.88;100.00;95425.84;5121138;27;20217;-78
2022/12/30 03:38:39;;;;;;;28.33;12.48;;;;;;;3.69;100.00;95428.22;5125899;27;20254;-78
2022/12/30 03:41:07;;;;;;;20.70;10.68;;;;;;;3.66;100.00;95428.75;5127444;27;20261;-78
2022/12/30 03:43:36;;;;;;;22.00;11.90;;;;;;;3.64;100.00;95440.81;5123073;27;20201;-78
2022/12/30 03:46:03;;;;;;;22.50;10.50;;;;;;;3.55;100.00;95433.25;5119694;27;20208;-79
2022/12/30 03:48:29;;;;;;;18.70;9.60;;;;;;;3.64;100.00;95440.81;5124069;27;20254;-78
2022/12/30 03:50:57;;;;;;;18.67;9.10;;;;;;;3.64;100.00;95430.88;5115865;27;20197;-78
2022/12/30 03:53:24;;;;;;;24.35;9.80;;;;;;;3.50;100.00;95427.91;5133793;27;20197;-79
2022/12/30 03:55:52;;;;;;;17.40;11.35;;;;;;;3.55;100.00;95433.25;5130222;27;20225;-79
2022/12/30 03:58:19;;;;;;;25.67;12.32;;;;;;;3.53;100.00;95430.06;5121210;27;20217;-78
2022/12/30 04:00:45;;;;;;;27.30;10.95;;;;;;;3.49;100.00;95434.34;5127197;27;20255;-79
2022/12/30 04:03:12;;;;;;;26.17;12.40;;;;;;;3.47;100.00;95441.00;5123746;27;20189;-79
2022/12/30 04:05:39;;;;;;;28.63;12.77;;;;;;;3.30;100.00;95448.44;5119864;27;20226;-79
2022/12/30 04:08:07;;;;;;;21.15;9.88;;;;;;;3.24;100.00;95446.81;5123172;27;20202;-78
2022/12/30 04:10:34;;;;;;;23.83;9.60;;;;;;;3.30;100.00;95446.56;5131035;27;20421;-78
2022/12/30 04:13:01;;;;;;;20.13;10.57;;;;;;;3.32;100.00;95444.44;5122442;27;20241;-78
2022/12/30 04:15:27;;;;;;;24.73;12.52;;;;;;;3.25;100.00;95454.59;5126698;27;20634;-78
2022/12/30 04:17:54;;;;;;;20.30;10.50;;;;;;;3.42;100.00;95449.81;5123435;27;20727;-78
2022/12/30 04:20:21;;;;;;;26.67;14.05;;;;;;;3.56;100.00;95450.13;5119206;27;20246;-78
2022/12/30 04:22:48;;;;;;;18.80;10.25;;;;;;;3.44;100.00;95453.03;5121641;27;20243;-78
2022/12/30 04:25:16;;;;;;;32.08;13.18;;;;;;;3.73;100.00;95456.09;5126304;27;20246;-78
2022/12/30 04:27:43;;;;;;;25.67;12.63;;;;;;;3.81;100.00;95454.78;5124602;27;20257;-78
2022/12/30 04:30:10;;;;;;;28.40;12.52;;;;;;;3.78;100.00;95463.34;5118973;27;20225;-77
2022/12/30 04:32:37;;;;;;;24.85;11.25;;;;;;;3.90;100.00;95466.59;5121058;27;20208;-78
2022/12/30 04:35:04;;;;;;;19.13;10.45;;;;;;;3.88;100.00;95460.69;5126450;27;20286;-78
2022/12/30 04:37:31;;;;;;;25.83;11.60;;;;;;;3.66;100.00;95454.75;5124884;27;20613;-79
2022/12/30 04:39:58;;;;;;;32.63;13.93;;;;;;;3.65;100.00;95469.19;5119370;27;20324;-79
2022/12/30 04:42:26;;;;;;;25.25;10.82;;;;;;;3.73;100.00;95466.00;5120032;27;20259;-78
2022/12/30 04:44:53;;;;;;;30.73;14.10;;;;;;;3.81;100.00;95468.19;5126228;27;20209;-78
2022/12/30 04:47:19;;;;;;;26.13;13.35;;;;;;;3.76;100.00;95471.66;5125109;27;20208;-79
2022/12/30 04:49:46;;;;;;;27.80;13.75;;;;;;;3.76;100.00;95466.28;5119709;27;20197;-77
2022/12/30 04:52:13;;;;;;;25.27;12.63;;;;;;;3.74;100.00;95464.94;5118992;27;20636;-78
2022/12/30 04:54:40;;;;;;;19.35;10.38;;;;;;;3.72;100.00;95475.09;5119505;27;20709;-78
2022/12/30 04:57:06;;;;;;;24.75;10.70;;;;;;;3.50;100.00;95470.75;5126265;27;20212;-78
2022/12/30 04:59:34;;;;;;;25.27;12.57;;;;;;;3.50;100.00;95468.09;5119898;27;20201;-78
2022/12/30 05:02:01;;;;;;;30.05;13.43;;;;;;;3.45;100.00;95476.09;5118303;27;20735;-78
2022/12/30 05:04:28;;;;;;;24.15;11.75;;;;;;;3.38;100.00;95480.09;5119831;27;20655;-80
2022/12/30 05:06:55;;;;;;;26.83;12.70;;;;;;;3.38;100.00;95480.88;5119035;27;20198;-79
2022/12/30 05:09:22;;;;;;;26.20;10.07;;;;;;;3.21;100.00;95474.91;5132499;27;20245;-79
2022/12/30 05:11:49;;;;;;;19.80;10.38;;;;;;;3.29;100.00;95486.97;5131468;27;20201;-79
2022/12/30 05:14:16;;;;;;;21.98;9.65;;;;;;;3.29;100.00;95487.78;5111882;28;20675;-78
2022/12/30 05:16:44;;;;;;;24.33;10.63;;;;;;;3.13;100.00;95484.25;5127219;27;20634;-79
2022/12/30 05:19:11;;;;;;;20.90;10.88;;;;;;;3.14;100.00;95485.06;5132353;27;20205;-78
2022/12/30 05:21:38;;;;;;;22.27;9.77;;;;;;;2.98;100.00;95491.38;5118581;27;20201;-77
2022/12/30 05:26:49;;;;;;;26.80;11.15;;;;;;;3.13;100.00;95483.44;5127702;27;20196;-79
2022/12/30 05:29:16;;;;;;;24.15;9.90;;;;;;;3.19;100.00;95487.75;5111895;28;20222;-78
2022/12/30 05:31:44;;;;;;;19.35;11.05;;;;;;;3.10;100.00;95483.97;5125582;27;20201;-78
2022/12/30 05:34:11;;;;;;;18.98;8.60;;;;;;;3.05;100.00;95497.31;5123592;27;20617;-79
2022/12/30 05:36:39;;;;;;;16.98;7.85;;;;;;;3.07;100.00;95500.53;5112518;27;20258;-78
2022/12/30 05:39:11;;;;;;;16.65;8.70;;;;;;;3.02;100.00;95503.16;5124115;27;20250;-78
2022/12/30 05:41:38;;;;;;;15.18;7.97;;;;;;;3.01;100.00;95501.56;5132172;27;20246;-79
2022/12/30 05:44:05;;;;;;;13.95;9.30;;;;;;;3.09;100.00;95503.75;5118009;27;20270;-78
2022/12/30 05:46:31;;;;;;;15.75;8.35;;;;;;;3.05;100.00;95510.69;5132043;27;20626;-79
2022/12/30 05:48:59;;;;;;;17.13;8.75;;;;;;;3.05;100.00;95499.97;5117569;27;20262;-79
2022/12/30 05:51:26;;;;;;;19.17;9.13;;;;;;;3.08;100.00;95512.84;5118321;27;20609;-79
2022/12/30 05:53:53;;;;;;;16.40;7.97;;;;;;;2.99;100.00;95509.06;5118104;27;20209;-78
2022/12/30 05:56:20;;;;;;;21.02;9.45;;;;;;;2.99;100.00;95517.09;5130220;27;20239;-79
2022/12/30 05:58:46;;;;;;;14.98;7.43;;;;;;;2.97;100.00;95511.19;5111616;28;20201;-79
2022/12/30 06:01:13;;;;;;;23.40;8.80;;;;;;;2.91;100.00;95513.00;5124421;27;20545;-78
2022/12/30 06:03:40;;;;;;;12.18;6.45;;;;;;;2.85;100.00;95516.72;5125017;27;20204;-78
2022/12/30 06:06:09;;;;;;;22.13;7.20;;;;;;;2.84;100.00;95505.22;5118831;27;20193;-79
2022/12/30 06:08:38;;;;;;;14.63;7.13;;;;;;;2.70;100.00;95506.72;5117626;27;20602;-79
2022/12/30 06:11:08;;;;;;;16.02;7.35;;;;;;;2.74;100.00;95523.03;5123420;27;20257;-79
2022/12/30 06:13:35;;;;;;;12.38;6.00;;;;;;;2.82;100.00;95514.56;5124348;27;20241;-79
2022/12/30 06:16:01;;;;;;;15.98;9.07;;;;;;;2.88;100.00;95512.69;5119990;27;20224;-79
2022/12/30 06:18:28;;;;;;;16.25;7.93;;;;;;;3.07;100.00;95521.94;5116719;27;20202;-80
2022/12/30 06:20:56;;;;;;;16.77;7.88;;;;;;;3.26;100.00;95520.47;5130916;27;20201;-79
2022/12/30 06:23:24;;;;;;;8.70;6.57;;;;;;;3.28;100.00;95518.31;5117273;27;20288;-79
2022/12/30 06:25:53;;;;;;;20.30;10.23;;;;;;;3.26;100.00;95514.28;5122254;27;20664;-79
2022/12/30 06:28:20;;;;;;;23.50;8.52;;;;;;;3.32;100.00;95519.41;5124287;27;20281;-79
2022/12/30 06:30:48;;;;;;;17.45;9.15;;;;;;;3.32;100.00;95527.44;5119641;27;20265;-80
2022/12/30 06:33:14;;;;;;;19.65;10.18;;;;;;;3.38;100.00;95528.28;5128550;27;20216;-80
2022/12/30 06:35:43;;;;;;;16.60;8.65;;;;;;;3.47;100.00;95526.72;5120223;27;20285;-80
2022/12/30 06:38:10;;;;;;;19.50;8.27;;;;;;;3.48;100.00;95522.97;5117387;27;20205;-79
2022/12/30 06:40:38;;;;;;;15.00;9.85;;;;;;;3.58;100.00;95539.88;5121314;27;20204;-79
2022/12/30 06:43:05;;;;;;;21.25;8.90;;;;;;;3.61;100.00;95538.56;5124152;27;20425;-80
2022/12/30 06:45:32;;;;;;;24.25;10.05;;;;;;;3.56;100.00;95536.66;5121132;27;20250;-79
2022/12/30 06:47:59;;;;;;;18.85;8.68;;;;;;;3.66;100.00;95529.75;5116167;27;20192;-79
2022/12/30 06:50:25;;;;;;;27.92;10.88;;;;;;;3.71;100.00;95527.88;5130119;27;20205;-79
2022/12/30 06:52:52;;;;;;;16.70;9.00;;;;;;;3.78;100.00;95543.72;5130910;27;20250;-81
2022/12/30 06:55:21;;;;;;;13.25;6.80;;;;;;;3.80;100.00;95547.78;5117395;27;20225;-79
2022/12/30 06:57:50;;;;;;;15.82;7.20;;;;;;;3.82;100.00;95545.63;5121930;27;20307;-78
2022/12/30 07:00:17;;;;;;;22.05;9.70;;;;;;;3.74;100.00;95542.63;5117420;28;20251;-79
2022/12/30 07:02:44;;;;;;;18.65;8.77;;;;;;;3.65;100.00;95552.25;5130711;28;20205;-79
2022/12/30 07:05:11;;;;;;;15.20;7.78;;;;;;;3.51;100.00;95547.38;5109166;28;20316;-79
2022/12/30 07:07:37;;;;;;;17.85;8.75;;;;;;;3.42;100.00;95550.78;5110570;28;20189;-79
2022/12/30 07:10:05;;;;;;;18.52;8.30;;;;;;;3.52;100.00;95551.66;5109972;28;20685;-79
2022/12/30 07:12:32;;;;;;;26.27;10.13;;;;;;;3.62;100.00;95550.91;5116959;28;20205;-79
2022/12/30 07:15:00;;;;;;;22.60;11.25;;;;;;;3.80;100.00;95557.69;5116938;28;20189;-79
2022/12/30 07:17:26;;;;;;;20.17;9.68;;;;;;;3.82;100.00;95561.72;5130665;28;20200;-79
2022/12/30 07:19:53;;;;;;;18.17;10.27;;;;;;;4.00;100.00;95551.56;5116885;28;20197;-80
2022/12/30 07:22:20;;;;;;;19.45;9.95;;;;;;;4.17;100.00;95549.47;5122830;28;20261;-79
2022/12/30 07:24:47;;;;;;;23.88;10.15;;;;;;;4.31;100.00;95558.63;5123464;28;20685;-80
2022/12/30 07:27:14;;;;;;;17.77;8.57;;;;;;;4.59;100.00;95554.66;5117656;28;20228;-79
2022/12/30 07:29:41;;;;;;;23.08;11.90;;;;;;;4.65;100.00;95550.88;5116345;27;20246;-79
2022/12/30 07:32:10;;;;;;;26.80;13.18;;;;;;;4.78;100.00;95557.63;5122164;28;20202;-78
2022/12/30 07:34:37;;;;;;;24.23;9.98;;;;;;;4.79;100.00;95554.66;5124169;28;20683;-79
2022/12/30 07:37:05;;;;;;;21.65;11.60;;;;;;;4.96;100.00;95549.84;5118640;28;20305;-79
2022/12/30 07:39:32;;;;;;;38.90;15.98;;;;;;;5.09;100.00;95553.03;5114913;28;20258;-78
2022/12/30 07:41:59;;;;;;;19.25;10.70;;;;;;;5.08;99.58;95551.44;5118961;28;20201;-79
2022/12/30 07:44:29;;;;;;;25.63;11.55;;;;;;;5.09;99.52;95547.69;5114898;28;20205;-78
2022/12/30 07:46:56;;;;;;;27.08;15.15;;;;;;;5.18;99.48;95557.63;5119294;28;20254;-80
2022/12/30 07:49:24;;;;;;;24.13;13.63;;;;;;;5.37;98.06;95557.84;5116803;28;20242;-78
2022/12/30 07:51:51;;;;;;;25.27;13.00;;;;;;;5.51;96.84;95550.03;5130343;28;20205;-78
2022/12/30 07:54:18;;;;;;;30.30;13.55;;;;;;;5.42;96.67;95557.84;5116028;28;20284;-80
2022/12/30 07:56:44;;;;;;;20.80;10.00;;;;;;;5.48;95.88;95554.06;5124680;28;20594;-78
2022/12/30 07:59:12;;;;;;;26.75;11.35;;;;;;;5.38;96.08;95556.78;5118661;27;20272;-80
2022/12/30 08:01:39;;;;;;;36.75;15.13;;;;;;;5.48;95.87;95562.13;5123522;27;20229;-79
2022/12/30 08:04:06;;;;;;;36.25;15.32;;;;;;;5.61;95.65;95550.78;5127614;27;20667;-79
2022/12/30 08:06:34;;;;;;;23.75;12.48;;;;;;;5.58;94.88;95553.25;5114636;28;20201;-79
2022/12/30 08:09:03;;;;;;;28.98;14.82;;;;;;;5.39;95.99;95546.81;5127352;27;20201;-79
2022/12/30 08:11:30;;;;;;;40.35;19.17;;;;;;;5.49;96.07;95547.59;5124637;27;20208;-79
2022/12/30 08:13:57;;;;;;;26.70;14.57;;;;;;;5.79;95.89;95540.53;5119618;27;20229;-79
2022/12/30 08:16:23;;;;;;;37.15;15.80;;;;;;;6.01;94.40;95549.09;5122291;27;20236;-79
2022/12/30 08:18:50;;;;;;;40.47;16.63;;;;;;;6.14;93.53;95545.81;5117070;27;20200;-79
2022/12/30 08:21:18;;;;;;;41.75;18.02;;;;;;;6.27;92.78;95547.06;5122165;27;20205;-79
2022/12/30 08:23:47;;;;;;;32.78;15.68;;;;;;;6.18;91.92;95546.84;5126511;27;20205;-80
2022/12/30 08:26:15;;;;;;;28.50;15.70;;;;;;;6.17;92.52;95547.91;5125314;27;20288;-79
2022/12/30 08:28:43;;;;;;;26.25;13.38;;;;;;;6.31;91.24;95548.91;5119670;27;20717;-79
2022/12/30 08:31:12;;;;;;;42.78;18.08;;;;;;;6.21;92.05;95550.88;5119786;27;20296;-79
2022/12/30 08:33:38;;;;;;;26.95;13.40;;;;;;;6.23;91.49;95540.63;5119466;27;20196;-79
2022/12/30 08:36:08;;;;;;;24.98;15.35;;;;;;;6.05;91.80;95544.75;5133892;27;20235;-79
2022/12/30 08:38:35;;;;;;;41.47;18.08;;;;;;;6.11;91.86;95556.31;5120116;27;20281;-79
2022/12/30 08:41:08;;;;;;;23.80;13.85;;;;;;;6.27;91.24;95547.88;5119626;27;20214;-80
2022/12/30 08:43:35;;;;;;;23.25;13.25;;;;;;;6.27;90.37;95553.25;5132969;27;20204;-79
2022/12/30 08:46:02;;;;;;;49.35;24.77;;;;;;;6.36;89.93;95548.91;5119158;27;20214;-79
2022/12/30 08:48:29;;;;;;;17.92;9.07;;;;;;;6.59;88.37;95557.34;5123772;27;20305;-80
2022/12/30 08:50:57;;;;;;;31.38;16.67;;;;;;;6.75;87.84;95564.25;5125807;27;20193;-80
2022/12/30 08:53:24;;;;;;;20.77;11.70;;;;;;;6.89;86.77;95554.47;5122057;27;20205;-79
2022/12/30 08:56:01;;;;;;;38.42;12.18;;;;;;;7.04;86.15;95551.66;5129885;27;20237;-80
2022/12/30 08:58:30;;;;;;;19.85;9.02;;;;;;;7.10;85.55;95547.84;5120322;27;20181;-80
2022/12/30 09:00:57;;;;;;;27.27;12.52;;;;;;;7.20;85.45;95554.22;5130739;27;20207;-80
2022/12/30 09:03:24;;;;;;;32.47;13.23;;;;;;;7.27;84.53;95541.19;5121103;27;20726;-80
2022/12/30 09:05:52;;;;;;;20.98;11.70;;;;;;;7.22;84.78;95549.34;5126495;27;20205;-80
2022/12/30 09:08:20;;;;;;;16.48;9.25;;;;;;;7.29;84.13;95541.72;5124364;27;20280;-79
2022/12/30 09:10:57;;;;;;;27.15;14.40;;;;;;;7.37;83.98;95541.13;5117800;27;20209;-78
2022/12/30 09:13:23;;;;;;;29.80;13.75;;;;;;;7.36;84.41;95526.84;5132780;27;20556;-79
2022/12/30 09:15:51;;;;;;;22.77;11.15;;;;;;;7.62;83.39;95534.66;5118946;27;21089;-80
2022/12/30 09:18:18;;;;;;;26.83;12.88;;;;;;;7.88;82.80;95527.09;5118601;27;20202;-80
2022/12/30 09:20:45;;;;;;;25.35;12.52;;;;;;;8.06;81.99;95518.22;5132193;27;20705;-80
2022/12/30 09:23:12;;;;;;;23.15;12.23;;;;;;;8.19;81.17;95523.72;5131968;27;20284;-81
2022/12/30 09:25:39;;;;;;;37.90;13.07;;;;;;;8.23;80.07;95526.63;5118777;27;20242;-79
2022/12/30 09:28:06;;;;;;;26.30;13.93;;;;;;;8.23;80.78;95513.13;5118156;27;20293;-80
2022/12/30 09:30:32;;;;;;;28.27;14.23;;;;;;;8.37;80.69;95524.84;5132533;27;20197;-80
2022/12/30 09:33:00;;;;;;;49.95;27.02;;;;;;;8.24;79.70;95520.13;5118774;27;20197;-79
2022/12/30 09:35:27;;;;;;;27.15;14.93;;;;;;;8.20;79.54;95513.69;5131766;27;20254;-81
2022/12/30 09:37:54;;;;;;;54.22;29.10;;;;;;;8.27;79.78;95514.16;5117718;27;20198;-80
2022/12/30 09:40:36;;;;;;;48.42;27.92;;;;;;;8.31;78.80;95515.19;5124266;27;20266;-79
2022/12/30 09:43:17;;;;;;;30.38;14.50;;;;;;;8.13;78.93;95514.06;5128588;27;20197;-80
2022/12/30 09:45:55;;;;;;;35.53;15.70;;;;;;;8.15;80.04;95511.09;5119958;27;20200;-80
2022/12/30 09:48:27;;;;;;;22.77;12.98;;;;;;;8.10;79.63;95503.03;5118572;27;20189;-80
2022/12/30 09:50:58;;;;;;;30.92;13.73;;;;;;;8.14;79.44;95498.69;5117210;27;20613;-78
2022/12/30 09:53:36;;;;;;;32.78;16.20;;;;;;;8.31;78.97;95499.00;5121951;27;20250;-79
2022/12/30 09:56:11;;;;;;;22.13;11.73;;;;;;;8.50;78.21;95497.09;5125050;27;20229;-79
2022/12/30 09:58:38;;;;;;;35.35;18.50;;;;;;;8.45;78.69;95494.50;5123988;27;20201;-80
2022/12/30 10:01:14;;;;;;;34.50;17.98;;;;;;;8.25;78.90;95478.56;5117500;27;20209;-78
2022/12/30 10:03:42;;;;;;;33.00;17.10;;;;;;;8.27;79.19;95484.47;5117531;27;20194;-79
2022/12/30 10:06:20;;;;;;;37.15;19.45;;;;;;;8.24;79.18;95493.13;5118990;27;20211;-80
2022/12/30 10:09:30;;;;;;;29.52;15.98;;;;;;;8.34;78.45;95473.31;5129870;27;20296;-79
2022/12/30 10:12:11;;;;;;;33.50;16.83;;;;;;;8.43;78.13;95480.50;5125214;27;20620;-79
2022/12/30 10:14:51;;;;;;;19.80;10.52;;;;;;;8.59;77.56;95472.16;5121616;27;20244;-79
2022/12/30 10:17:31;;;;;;;32.97;13.18;;;;;;;8.75;77.27;95470.78;5117589;27;20209;-79
2022/12/30 10:20:13;;;;;;;60.33;32.08;;;;;;;8.84;76.61;95469.03;5118070;27;20213;-79
2022/12/30 10:22:46;;;;;;;40.00;21.27;;;;;;;8.86;76.71;95466.84;5120962;27;20193;-80
2022/12/30 10:25:24;;;;;;;54.78;18.08;;;;;;;9.08;75.84;95458.09;5124177;27;20254;-80
2022/12/30 10:27:55;;;;;;;48.97;29.10;;;;;;;8.97;75.62;95462.06;5122677;27;20857;-79
2022/12/30 10:30:24;;;;;;;33.35;16.95;;;;;;;9.06;75.65;95444.06;5117626;27;20238;-79
2022/12/30 10:32:55;;;;;;;30.52;14.85;;;;;;;9.27;75.31;95454.22;5118039;27;20197;-81
2022/12/30 10:35:25;;;;;;;34.00;15.35;;;;;;;9.36;74.84;95440.81;5117944;27;20201;-80
2022/12/30 10:37:57;;;;;;;22.15;13.05;;;;;;;9.36;74.49;95440.81;5117043;27;20703;-79
2022/12/30 10:40:34;;;;;;;30.35;14.23;;;;;;;9.41;74.68;95439.91;5130826;27;20643;-79
2022/12/30 10:43:14;;;;;;;26.73;13.70;;;;;;;9.36;74.29;95434.59;5127761;27;20239;-80
2022/12/30 10:46:00;;;;;;;29.40;14.45;;;;;;;9.25;74.12;95420.47;5122403;27;20288;-77
2022/12/30 10:48:49;;;;;;;22.50;14.18;;;;;;;9.36;74.40;95418.38;5118265;27;20549;-80
2022/12/30 10:51:19;;;;;;;28.00;14.15;;;;;;;9.42;74.27;95425.31;5117361;27;20241;-80
2022/12/30 10:53:49;;;;;;;32.95;16.77;;;;;;;9.55;73.08;95411.78;5117321;27;20210;-80
2022/12/30 10:56:26;;;;;;;32.00;16.02;;;;;;;9.68;73.26;95414.78;5123628;27;20255;-80
2022/12/30 10:58:57;;;;;;;48.42;24.23;;;;;;;9.70;72.76;95418.78;5124019;27;20771;-80
2022/12/30 11:01:29;;;;;;;43.53;23.88;;;;;;;9.73;72.33;95414.66;5118860;28;20189;-80
2022/12/30 11:03:58;;;;;;;38.45;23.65;;;;;;;9.60;72.91;95400.03;5116978;28;20696;-80
2022/12/30 11:06:29;;;;;;;20.92;9.93;;;;;;;9.80;72.30;95402.31;5120769;28;20235;-79
2022/12/30 11:09:22;;;;;;;27.35;14.15;;;;;;;9.80;72.55;95391.50;5123733;28;20194;-80
2022/12/30 11:14:45;;;;;;;23.85;11.90;;;;;;;9.70;73.01;95388.22;5120701;28;20247;-80
2022/12/30 11:17:24;;;;;;;26.77;13.63;;;;;;;9.66;72.67;95393.44;5117136;28;20273;-79
2022/12/30 11:19:52;;;;;;;23.80;11.80;;;;;;;9.68;73.77;95385.81;5117149;28;20284;-80
2022/12/30 11:22:21;;;;;;;21.23;10.32;;;;;;;9.54;73.55;95401.25;5130751;28;20205;-79
2022/12/30 11:25:03;;;;;;;28.20;14.20;;;;;;;9.48;73.61;95386.22;5129133;28;20200;-80
2022/12/30 11:27:38;;;;;;;25.45;13.90;;;;;;;9.57;73.51;95384.41;5119820;27;20274;-79
2022/12/30 11:30:06;;;;;;;25.65;11.38;;;;;;;9.73;73.08;95388.41;5117095;28;20200;-80
2022/12/30 11:32:35;;;;;;;25.35;12.75;;;;;;;9.68;73.19;95385.81;5118700;28;20692;-79
2022/12/30 11:35:01;;;;;;;29.85;14.00;;;;;;;9.62;72.98;95384.31;5132463;27;20205;-81
2022/12/30 11:37:37;;;;;;;30.27;13.95;;;;;;;9.73;73.29;95388.41;5121882;27;20233;-81
2022/12/30 11:40:26;;;;;;;27.85;13.70;;;;;;;9.90;72.10;95390.47;5127448;27;20270;-79
2022/12/30 11:43:15;;;;;;;20.85;10.13;;;;;;;9.90;71.96;95391.28;5113879;28;20853;-79
2022/12/30 11:45:55;;;;;;;32.42;14.15;;;;;;;9.83;72.19;95393.59;5127352;27;20197;-80
2022/12/30 11:48:30;;;;;;;42.72;23.98;;;;;;;10.12;71.22;95384.28;5113172;28;20190;-81
2022/12/30 11:50:58;;;;;;;35.55;16.42;;;;;;;10.25;71.08;95376.16;5126941;27;20655;-81
2022/12/30 11:53:30;;;;;;;34.60;16.40;;;;;;;10.40;71.37;95372.28;5123225;27;20199;-81
2022/12/30 11:55:58;;;;;;;35.28;14.48;;;;;;;10.43;70.56;95379.00;5120036;27;20228;-79
2022/12/30 11:58:25;;;;;;;29.35;13.63;;;;;;;10.37;70.28;95381.03;5126371;27;20231;-80
2022/12/30 12:01:00;;;;;;;34.78;15.10;;;;;;;10.32;70.00;95378.44;5119519;27;20196;-79
2022/12/30 12:03:29;;;;;;;29.85;14.85;;;;;;;10.33;70.56;95380.84;5121237;27;20201;-81
2022/12/30 12:06:09;;;;;;;45.88;24.38;;;;;;;10.28;70.65;95382.88;5127148;27;20204;-80
2022/12/30 12:08:46;;;;;;;37.95;21.60;;;;;;;10.43;70.79;95377.09;5128881;27;20724;-80
2022/12/30 12:11:17;;;;;;;40.33;21.90;;;;;;;10.25;70.55;95376.16;5124333;27;20193;-80
2022/12/30 12:13:52;;;;;;;38.85;22.50;;;;;;;10.29;70.63;95374.44;5113135;28;20238;-80
2022/12/30 12:16:31;;;;;;;41.15;21.95;;;;;;;10.42;70.59;95367.34;5112751;28;20193;-80
2022/12/30 12:19:08;;;;;;;38.78;21.08;;;;;;;10.57;69.82;95375.13;5126946;27;20280;-80
2022/12/30 12:21:38;;;;;;;42.15;23.95;;;;;;;10.57;69.63;95374.31;5126940;27;20676;-79
2022/12/30 12:24:16;;;;;;;42.88;23.55;;;;;;;10.63;69.89;95368.47;5120913;27;20295;-80
2022/12/30 12:26:50;;;;;;;49.17;24.15;;;;;;;10.84;68.86;95365.22;5119105;27;20274;-80
2022/12/30 12:29:20;;;;;;;45.72;23.45;;;;;;;10.90;69.06;95372.94;5122332;27;20235;-79
2022/12/30 12:32:09;;;;;;;40.38;23.35;;;;;;;11.04;68.95;95367.41;5126686;27;20201;-80
2022/12/30 12:34:49;;;;;;;41.92;24.05;;;;;;;11.21;68.19;95362.03;5122829;27;20257;-79